Terminal Aerodrome Forecast
Issued by NWS

Home | Current Version | Previous Version | Text Only | Print | Product List | Glossary On
Versions: 1 2 3 4 5 6 7 8 9 10 11 12 13 14 15 16 17 18 19 20 21 22 23 24 25 26 27 28
000
FTUS41 KBOX 271123
TAFFMH
TAF
KFMH 271123Z 2712/2812 22008KT P6SM FEW250
     FM280300 24006KT P6SM BKN050
     FM280800 29006KT 6SM BR BKN080
     FM281100 34008KT 6SM BR SCT250=

USA.gov is the U.S. government's official web portal to all federal, state and local government web resources and services.